Charles M. Schulz Sonoma County Airport
KSTS : now visible

Airfield :











YOU CAN JOIN US ON...

 
LOGIN :

Register | Disclaimer

   EN    FR    IT 

 









Legend :    VFR   Marginal VFR   IFR   Intensive IFR   Very Intensive IFR
Visi :
Ceiling :
>= 8 km
>= 3000ft
5 to 8 km
1000 to 3000 ft
1500m to 5 km
500 to 1000 ft
800 to 1500m
200 to 500 ft
< 800m
< 200 ft
Symbols :   Thunderstorms  Fog  Heavy snow  Heavy precipitations  Wind > 20 kt






- Airport Elevation : 128 ft


KSTS - Charles M. Schulz Sonoma County

CURRENT METAR :
  • 110511Z AUTO 00000KT 3SM BR FEW023 BKN029 OVC035 11/11 A3022 RMK AO2 T01060106

EXPIRED METARs :
  • 110453Z AUTO 00000KT 3SM BR FEW027 OVC036 11/11 A3022 RMK AO2 RAE06 SLP227 P0000 T01060106
  • 110353Z AUTO 13003KT 4SM -RA BR FEW010 SCT050 OVC085 11/10 A3020 RMK AO2 SLP219 P0012 T01060100
  • 110300Z 00000KT 4SM RA BR SCT020 OVC049 11/10 A3022 RMK AO2 P0002 T01060100
  • 110253Z 09003KT 5SM RA BR BKN023 OVC029 11/10 A3022 RMK AO2 SLP226 P0014 60020 T01060100 50013

TAF KSTS
Valid from the 11 at 00:00 until the 12 at 00:00 UTC


102326Z 1100/1124 VRB03KT 5SM -RA BR SCT010 BKN015 OVC030
FM110700 VRB03KT 4SM -SHRA BR BKN015 OVC025
FM111200 VRB03KT 4SM BR VCSH SCT005 BKN012 BKN030
FM111900 VRB04KT P6SM VCSH FEW008 BKN025 BKN040



MET'MAP, your aeronautical weather chart ! - Copyright ORBIFLY December 2007 - Disclaimer

ORBIFLY MET'MAP TEAM :

Programming & Development : Alexandra Zaïnal
Concept & original design : Baudouin d'Aumeries
Assistance for programming : Marc-Olivier Méhu
Technical & hardware support : Manuel Goepfert

Contact : metmap@orbifly.com




SOURCES & CREDITS :

   NOAA       Earth
Advisory